Time;durP1;ratioP1;P1;durP2;ratioP2;P2;SDS_P1;SDS_P2;PMS_P1;PMS_P2;Temp;Humidity;BMP_temperature;BMP_pressure;BME280_temperature;BME280_humidity;BME280_pressure;Samples;Min_cycle;Max_cycle;Signal;HPM_P1;HPM_P2
2023/11/22 00:00:10;;;;;;;11.73;9.65;;;6.50;99.90;;;;;;5065006;28;20031;-87
2023/11/22 00:02:37;;;;;;;12.88;9.85;;;6.50;99.90;;;;;;5081877;28;20024;-87
2023/11/22 00:05:05;;;;;;;12.68;9.07;;;6.40;99.90;;;;;;5055095;28;20033;-87
2023/11/22 00:07:31;;;;;;;13.07;9.98;;;6.40;99.90;;;;;;5044459;28;20049;-87
2023/11/22 00:09:56;;;;;;;12.57;10.02;;;6.40;99.90;;;;;;5051270;28;20016;-87
2023/11/22 00:12:25;;;;;;;13.93;9.70;;;6.40;99.90;;;;;;5080815;28;20035;-87
2023/11/22 00:14:51;;;;;;;12.35;9.90;;;6.30;99.90;;;;;;5044837;28;20025;-87
2023/11/22 00:17:17;;;;;;;12.95;10.93;;;6.30;99.90;;;;;;5060102;28;20422;-87
2023/11/22 00:19:44;;;;;;;12.63;10.40;;;6.30;99.90;;;;;;5059187;28;20032;-88
2023/11/22 00:22:14;;;;;;;12.15;10.00;;;6.20;99.90;;;;;;5058588;28;20020;-88
2023/11/22 00:24:40;;;;;;;14.30;10.45;;;6.20;99.90;;;;;;5076190;28;20044;-85
2023/11/22 00:27:06;;;;;;;13.25;10.13;;;6.20;99.90;;;;;;5041690;28;20021;-87
2023/11/22 00:29:32;;;;;;;13.00;9.68;;;6.10;99.90;;;;;;5058823;28;20205;-87
2023/11/22 00:31:58;;;;;;;11.70;9.35;;;6.10;99.90;;;;;;5024869;28;20504;-89
2023/11/22 00:34:24;;;;;;;14.50;10.50;;;6.20;99.90;;;;;;5057391;28;20060;-87
2023/11/22 00:36:50;;;;;;;13.50;10.60;;;6.20;99.90;;;;;;5057286;28;20036;-89
2023/11/22 00:39:16;;;;;;;14.70;11.20;;;6.10;99.90;;;;;;5058147;28;20460;-88
2023/11/22 00:41:42;;;;;;;12.20;9.32;;;6.10;99.90;;;;;;5058292;28;20120;-88
2023/11/22 00:44:08;;;;;;;13.60;9.75;;;6.10;99.90;;;;;;5057935;28;20103;-88
2023/11/22 00:46:33;;;;;;;10.93;9.18;;;6.20;99.90;;;;;;5041689;28;20025;-89
2023/11/22 00:48:59;;;;;;;13.00;10.68;;;6.20;99.90;;;;;;5083043;28;20045;-87
2023/11/22 00:51:25;;;;;;;12.57;10.18;;;6.20;99.90;;;;;;5081457;28;20029;-87
2023/11/22 00:53:51;;;;;;;12.70;9.93;;;6.10;99.90;;;;;;5099233;28;20009;-85
2023/11/22 00:56:16;;;;;;;11.90;9.07;;;6.10;99.90;;;;;;5065092;28;20015;-88
2023/11/22 00:58:42;;;;;;;11.98;9.65;;;6.20;99.90;;;;;;5080272;28;20111;-88
2023/11/22 01:01:08;;;;;;;15.85;9.32;;;6.20;99.90;;;;;;5057865;28;20074;-88
2023/11/22 01:03:35;;;;;;;11.98;9.20;;;6.20;99.90;;;;;;5058004;28;20028;-88
2023/11/22 01:06:01;;;;;;;11.00;9.02;;;6.10;99.90;;;;;;5057416;28;20047;-89
2023/11/22 01:08:26;;;;;;;13.55;10.70;;;6.20;99.90;;;;;;5057227;28;20051;-88
2023/11/22 01:10:52;;;;;;;14.55;10.13;;;6.10;99.90;;;;;;5057392;28;20036;-88
2023/11/22 01:13:18;;;;;;;13.00;10.07;;;6.10;99.90;;;;;;5075444;28;20077;-88
2023/11/22 01:15:44;;;;;;;10.00;8.38;;;6.10;99.90;;;;;;5057320;28;20037;-88
2023/11/22 01:18:10;;;;;;;11.13;8.70;;;6.10;99.90;;;;;;5075352;28;20028;-89
2023/11/22 01:20:36;;;;;;;10.85;8.68;;;6.10;99.90;;;;;;5057722;28;20029;-88
2023/11/22 01:23:02;;;;;;;10.27;8.38;;;6.10;99.90;;;;;;5074858;28;20028;-88
2023/11/22 01:25:28;;;;;;;10.10;8.23;;;6.10;99.90;;;;;;5040600;28;20097;-90
2023/11/22 01:27:54;;;;;;;10.73;8.75;;;6.10;99.90;;;;;;5040344;28;20376;-89
2023/11/22 01:30:19;;;;;;;11.70;8.38;;;6.10;99.90;;;;;;5040716;28;20032;-88
2023/11/22 01:32:45;;;;;;;10.23;8.20;;;6.10;99.90;;;;;;5024522;28;20035;-87
2023/11/22 01:35:11;;;;;;;13.20;9.25;;;6.10;99.90;;;;;;5056776;28;20033;-88
2023/11/22 01:37:36;;;;;;;10.32;8.98;;;6.10;99.90;;;;;;5056921;28;20028;-88
2023/11/22 01:40:03;;;;;;;10.48;8.52;;;6.00;99.90;;;;;;5074656;28;20082;-89
2023/11/22 01:42:29;;;;;;;10.77;8.15;;;6.00;99.90;;;;;;5056870;28;20024;-88
2023/11/22 01:44:55;;;;;;;10.93;7.82;;;5.90;99.90;;;;;;5056980;28;20094;-89
2023/11/22 01:47:21;;;;;;;11.32;8.70;;;5.90;99.90;;;;;;5056780;28;20057;-89
2023/11/22 01:49:48;;;;;;;11.45;8.27;;;5.90;99.90;;;;;;5040334;28;20021;-88
2023/11/22 01:52:14;;;;;;;11.48;8.82;;;6.00;99.90;;;;;;5040107;28;20029;-88
2023/11/22 01:54:40;;;;;;;11.55;8.55;;;6.00;99.90;;;;;;5074770;28;20039;-88
2023/11/22 01:57:10;;;;;;;9.57;7.95;;;5.90;99.90;;;;;;5040036;28;20035;-88
2023/11/22 01:59:35;;;;;;;9.35;8.18;;;5.90;99.90;;;;;;5056667;28;20527;-88
2023/11/22 02:02:01;;;;;;;10.73;8.00;;;6.00;99.90;;;;;;5039999;28;20127;-88
2023/11/22 02:04:27;;;;;;;9.75;7.85;;;5.90;99.90;;;;;;5024013;28;20035;-88
2023/11/22 02:06:53;;;;;;;11.30;7.88;;;5.90;99.90;;;;;;5023670;28;20060;-88
2023/11/22 02:09:19;;;;;;;12.02;8.20;;;5.90;99.90;;;;;;5074990;28;20031;-89
2023/11/22 02:11:48;;;;;;;12.40;8.43;;;5.80;99.90;;;;;;5048784;28;20123;-88
2023/11/22 02:14:14;;;;;;;10.40;8.10;;;5.80;99.90;;;;;;5064988;28;20016;-88
2023/11/22 02:16:41;;;;;;;9.38;7.95;;;5.80;99.90;;;;;;5064035;28;20028;-87
2023/11/22 02:19:13;;;;;;;10.18;8.43;;;5.80;99.90;;;;;;5063860;28;20005;-86
2023/11/22 02:21:39;;;;;;;11.02;8.20;;;5.80;99.90;;;;;;5093719;28;20016;-89
2023/11/22 02:24:05;;;;;;;10.60;7.95;;;5.80;99.90;;;;;;5057459;28;20025;-88
2023/11/22 02:26:31;;;;;;;11.70;8.43;;;5.70;99.90;;;;;;5038959;28;20025;-88
2023/11/22 02:28:56;;;;;;;10.73;8.07;;;5.70;99.90;;;;;;5055925;28;20021;-88
2023/11/22 02:31:23;;;;;;;11.30;8.45;;;5.70;99.90;;;;;;5039672;28;20036;-89
2023/11/22 02:33:49;;;;;;;10.65;8.00;;;5.60;99.90;;;;;;5055902;28;20026;-88
2023/11/22 02:36:15;;;;;;;10.68;7.95;;;5.60;99.90;;;;;;5056341;28;20452;-87
2023/11/22 02:38:41;;;;;;;10.68;7.70;;;5.60;99.90;;;;;;5074022;28;20042;-88
2023/11/22 02:41:08;;;;;;;11.02;8.00;;;5.60;99.90;;;;;;5056405;28;20021;-88
2023/11/22 02:43:35;;;;;;;10.82;8.45;;;5.60;99.90;;;;;;5056299;28;20464;-89
2023/11/22 02:46:01;;;;;;;10.23;8.13;;;5.50;99.90;;;;;;5039468;28;20042;-88
2023/11/22 02:48:26;;;;;;;10.50;8.05;;;5.50;99.90;;;;;;5039503;28;20111;-88
2023/11/22 02:50:54;;;;;;;10.80;8.57;;;5.50;99.90;;;;;;5056168;28;20040;-89
2023/11/22 02:53:20;;;;;;;12.25;8.10;;;5.50;99.90;;;;;;5023441;28;20020;-88
2023/11/22 02:55:45;;;;;;;11.70;9.10;;;5.50;99.90;;;;;;5073714;28;20122;-88
2023/11/22 02:58:12;;;;;;;13.75;9.60;;;5.50;99.90;;;;;;5056824;28;20033;-88
2023/11/22 03:00:40;;;;;;;11.60;8.73;;;5.40;99.90;;;;;;5059737;28;20174;-87
2023/11/22 03:03:09;;;;;;;12.68;9.70;;;5.40;99.90;;;;;;5059611;28;20024;-88
2023/11/22 03:05:36;;;;;;;16.42;10.02;;;5.40;99.90;;;;;;5059838;28;20033;-87
2023/11/22 03:08:07;;;;;;;11.90;9.10;;;5.40;99.90;;;;;;5076865;28;20129;-88
2023/11/22 03:10:33;;;;;;;11.10;9.23;;;5.30;99.90;;;;;;5059816;28;20029;-88
2023/11/22 03:12:58;;;;;;;13.65;9.20;;;5.30;99.90;;;;;;5043372;28;20037;-88
2023/11/22 03:15:24;;;;;;;13.43;9.13;;;5.30;99.90;;;;;;5042913;28;20039;-87
2023/11/22 03:17:50;;;;;;;12.32;9.35;;;5.30;99.90;;;;;;5059437;28;20104;-88
2023/11/22 03:20:16;;;;;;;11.25;8.63;;;5.30;99.90;;;;;;5059442;28;20039;-87
2023/11/22 03:22:43;;;;;;;10.15;8.50;;;5.30;99.90;;;;;;5059717;28;20039;-88
2023/11/22 03:25:10;;;;;;;12.57;9.35;;;5.30;99.90;;;;;;5059718;28;20066;-88
2023/11/22 03:27:37;;;;;;;12.38;9.30;;;5.30;99.90;;;;;;5059199;28;20081;-88
2023/11/22 03:30:03;;;;;;;12.82;9.18;;;5.30;99.90;;;;;;5059489;28;20046;-85
2023/11/22 03:32:29;;;;;;;13.15;9.98;;;5.30;99.90;;;;;;5042969;28;20029;-89
2023/11/22 03:34:55;;;;;;;12.80;9.77;;;5.30;99.90;;;;;;5060143;28;20052;-88
2023/11/22 03:37:20;;;;;;;11.98;8.95;;;5.30;99.90;;;;;;5081002;28;20052;-88
2023/11/22 03:39:48;;;;;;;12.55;10.10;;;5.30;99.90;;;;;;5066576;28;20064;-87
2023/11/22 03:42:17;;;;;;;10.95;8.65;;;5.30;99.90;;;;;;5066866;28;20043;-86
2023/11/22 03:44:43;;;;;;;13.80;9.25;;;5.30;99.90;;;;;;5077583;28;20037;-87
2023/11/22 03:47:13;;;;;;;12.18;8.95;;;5.30;99.90;;;;;;5077248;28;20025;-88
2023/11/22 03:49:39;;;;;;;14.18;8.80;;;5.30;99.90;;;;;;5058991;28;20046;-88
2023/11/22 03:52:05;;;;;;;9.98;8.18;;;5.30;99.90;;;;;;5058840;28;20032;-84
2023/11/22 03:54:32;;;;;;;11.25;9.25;;;5.30;99.90;;;;;;5076751;28;20039;-88
2023/11/22 03:56:58;;;;;;;13.88;9.20;;;5.30;99.90;;;;;;5059096;28;20094;-89
2023/11/22 03:59:24;;;;;;;11.82;9.27;;;5.30;99.90;;;;;;5058991;28;20035;-89
2023/11/22 04:01:50;;;;;;;11.45;8.32;;;5.30;99.90;;;;;;5058590;28;20032;-87
2023/11/22 04:04:16;;;;;;;12.15;8.88;;;5.30;99.90;;;;;;5041827;28;20029;-89
2023/11/22 04:06:42;;;;;;;12.10;8.93;;;5.30;99.90;;;;;;5041773;28;20053;-88
2023/11/22 04:09:08;;;;;;;11.77;8.20;;;5.30;99.90;;;;;;5076356;28;20052;-86
2023/11/22 04:11:34;;;;;;;10.45;8.70;;;5.20;99.90;;;;;;5058701;28;20387;-88
2023/11/22 04:14:00;;;;;;;11.95;9.38;;;5.20;99.90;;;;;;5058448;28;20503;-89
2023/11/22 04:16:26;;;;;;;12.20;9.25;;;5.20;99.90;;;;;;5057963;28;20112;-87
2023/11/22 04:18:51;;;;;;;11.18;7.80;;;5.10;99.90;;;;;;5058672;28;20029;-88
2023/11/22 04:21:17;;;;;;;11.85;9.13;;;5.10;99.90;;;;;;5041713;28;20141;-88
2023/11/22 04:23:43;;;;;;;11.48;8.02;;;5.00;99.90;;;;;;5058527;28;20059;-88
2023/11/22 04:26:08;;;;;;;12.73;8.68;;;5.00;99.90;;;;;;5075695;28;20456;-85
2023/11/22 04:28:34;;;;;;;10.63;8.60;;;5.00;99.90;;;;;;5041717;28;20029;-88
2023/11/22 04:31:00;;;;;;;11.82;8.65;;;4.90;99.90;;;;;;5058164;28;20464;-87
2023/11/22 04:33:28;;;;;;;10.85;8.38;;;4.90;99.90;;;;;;5057829;28;20017;-88
2023/11/22 04:35:54;;;;;;;10.55;7.80;;;4.80;99.90;;;;;;5058584;28;20062;-87
2023/11/22 04:38:20;;;;;;;11.10;8.35;;;4.80;99.90;;;;;;5057928;28;20457;-88
2023/11/22 04:40:45;;;;;;;12.15;8.57;;;4.80;99.90;;;;;;5057962;28;20028;-88
2023/11/22 04:43:11;;;;;;;11.88;8.02;;;4.70;99.90;;;;;;5041476;28;20030;-85
2023/11/22 04:45:37;;;;;;;11.60;8.60;;;4.70;99.90;;;;;;5057830;28;20037;-88
2023/11/22 04:48:04;;;;;;;12.02;8.55;;;4.60;99.90;;;;;;5057608;28;20059;-88
2023/11/22 04:50:29;;;;;;;12.20;8.68;;;4.60;99.90;;;;;;5057677;28;20027;-87
2023/11/22 04:52:55;;;;;;;12.23;8.13;;;4.50;99.90;;;;;;5057721;28;20032;-88
2023/11/22 04:55:23;;;;;;;11.38;8.32;;;4.50;99.90;;;;;;5075550;28;20089;-88
2023/11/22 04:57:49;;;;;;;14.25;8.73;;;4.40;99.90;;;;;;5058331;28;20035;-86
2023/11/22 05:00:14;;;;;;;13.15;8.55;;;4.40;99.90;;;;;;5079261;28;20068;-83
2023/11/22 05:02:40;;;;;;;11.50;8.13;;;4.40;99.90;;;;;;5081942;28;20043;-88
2023/11/22 05:05:10;;;;;;;11.10;8.20;;;4.30;99.90;;;;;;5098820;28;20033;-86
2023/11/22 05:07:37;;;;;;;10.85;8.13;;;4.30;99.90;;;;;;5090005;28;20090;-87
2023/11/22 05:10:04;;;;;;;11.88;8.98;;;4.30;99.90;;;;;;5060727;28;20044;-87
2023/11/22 05:12:32;;;;;;;12.32;8.82;;;4.30;99.90;;;;;;5058317;28;20016;-88
2023/11/22 05:14:58;;;;;;;11.30;8.05;;;4.20;99.90;;;;;;5057828;28;20384;-88
2023/11/22 05:17:24;;;;;;;11.82;8.70;;;4.20;99.90;;;;;;5040622;28;20040;-88
2023/11/22 05:19:50;;;;;;;11.85;8.00;;;4.20;99.90;;;;;;5057828;28;20025;-88
2023/11/22 05:22:16;;;;;;;12.05;8.85;;;4.10;99.90;;;;;;5059203;28;20024;-84
2023/11/22 05:24:41;;;;;;;11.70;8.25;;;4.10;99.90;;;;;;5044179;28;20032;-88
2023/11/22 05:27:08;;;;;;;11.68;8.82;;;4.10;99.90;;;;;;5045258;28;20024;-88
2023/11/22 05:29:34;;;;;;;10.90;8.13;;;4.10;99.90;;;;;;5090488;28;20025;-88
2023/11/22 05:32:02;;;;;;;11.95;8.57;;;4.10;99.90;;;;;;5097967;28;20024;-87
2023/11/22 05:34:30;;;;;;;10.32;8.10;;;4.00;99.90;;;;;;5080600;28;20029;-88
2023/11/22 05:36:56;;;;;;;10.82;7.78;;;4.00;99.90;;;;;;5071542;28;20079;-86
2023/11/22 05:39:24;;;;;;;11.05;7.38;;;4.00;99.90;;;;;;5041494;28;20020;-88
2023/11/22 05:41:51;;;;;;;10.52;8.15;;;4.00;99.90;;;;;;5041212;28;20020;-87
2023/11/22 05:44:17;;;;;;;10.95;7.97;;;4.00;99.90;;;;;;5056667;28;20024;-89
2023/11/22 05:46:43;;;;;;;9.23;7.50;;;4.00;99.90;;;;;;5040883;28;20039;-87
2023/11/22 05:49:10;;;;;;;10.82;7.88;;;4.00;99.90;;;;;;5057405;28;20344;-88
2023/11/22 05:51:37;;;;;;;11.82;8.52;;;4.00;99.90;;;;;;5074853;28;20449;-89
2023/11/22 05:54:06;;;;;;;11.90;8.65;;;4.00;99.90;;;;;;5040399;28;20502;-89
2023/11/22 05:56:32;;;;;;;12.13;8.40;;;4.00;99.90;;;;;;5074758;28;20028;-89
2023/11/22 05:58:59;;;;;;;15.15;8.57;;;4.00;99.90;;;;;;5040018;28;20391;-88
2023/11/22 06:01:26;;;;;;;10.68;7.63;;;4.00;99.90;;;;;;5056191;28;20028;-89
2023/11/22 06:03:52;;;;;;;11.15;7.72;;;4.10;99.90;;;;;;5023896;28;20025;-87
2023/11/22 06:06:21;;;;;;;10.75;7.68;;;4.10;99.90;;;;;;5056806;28;20040;-88
2023/11/22 06:08:50;;;;;;;10.75;7.32;;;4.10;99.90;;;;;;5056523;28;20036;-87
2023/11/22 06:11:16;;;;;;;9.88;7.68;;;4.10;99.90;;;;;;5056513;28;20032;-89
2023/11/22 06:13:46;;;;;;;11.55;8.43;;;4.20;99.90;;;;;;5056349;28;20024;-87
2023/11/22 06:16:12;;;;;;;11.00;7.60;;;4.20;99.90;;;;;;5057219;28;20438;-87
2023/11/22 06:18:40;;;;;;;10.90;8.43;;;4.20;99.90;;;;;;5040906;28;20033;-87
2023/11/22 06:21:09;;;;;;;10.82;8.15;;;4.30;99.90;;;;;;5045289;28;20028;-88
2023/11/22 06:23:35;;;;;;;11.93;8.63;;;4.30;99.90;;;;;;5064032;28;20080;-87
2023/11/22 06:26:01;;;;;;;11.52;8.07;;;4.30;99.90;;;;;;5080755;28;20051;-86
2023/11/22 06:28:28;;;;;;;12.45;8.18;;;4.30;99.90;;;;;;5063860;28;20013;-87
2023/11/22 06:30:54;;;;;;;11.25;8.43;;;4.30;99.90;;;;;;5059075;28;20025;-88
2023/11/22 06:33:20;;;;;;;11.02;8.48;;;4.30;99.90;;;;;;5057981;28;20036;-89
2023/11/22 06:35:45;;;;;;;12.32;8.70;;;4.30;99.90;;;;;;5026944;28;20043;-88
2023/11/22 06:38:11;;;;;;;11.55;8.82;;;4.30;99.90;;;;;;5060150;28;20388;-86
2023/11/22 06:40:37;;;;;;;11.52;8.43;;;4.30;99.90;;;;;;5042763;28;20102;-88
2023/11/22 06:43:04;;;;;;;13.30;8.77;;;4.30;99.90;;;;;;5059740;28;20087;-86
2023/11/22 06:45:31;;;;;;;10.43;8.10;;;4.30;99.90;;;;;;5059670;28;20032;-88
2023/11/22 06:47:57;;;;;;;10.70;8.02;;;4.30;99.90;;;;;;5043697;28;20029;-87
2023/11/22 06:50:24;;;;;;;11.25;7.95;;;4.30;99.90;;;;;;5059460;28;20396;-88
2023/11/22 06:52:50;;;;;;;10.98;7.72;;;4.30;99.90;;;;;;5059608;28;20033;-87
2023/11/22 06:55:15;;;;;;;10.32;8.07;;;4.40;99.90;;;;;;5059745;28;20032;-87
2023/11/22 06:57:41;;;;;;;9.98;7.55;;;4.40;99.90;;;;;;5042627;28;20032;-87
2023/11/22 07:00:09;;;;;;;10.60;7.85;;;4.40;99.90;;;;;;5076838;28;20086;-87
2023/11/22 07:02:35;;;;;;;11.82;8.55;;;4.50;99.90;;;;;;5042702;28;20476;-87
2023/11/22 07:05:03;;;;;;;12.00;9.27;;;4.50;99.90;;;;;;5059114;28;20041;-87
2023/11/22 07:07:29;;;;;;;13.68;9.88;;;4.50;99.90;;;;;;5076652;28;20045;-87
2023/11/22 07:09:56;;;;;;;11.70;8.63;;;4.50;99.90;;;;;;5041841;28;20414;-88
2023/11/22 07:12:22;;;;;;;12.68;9.18;;;4.50;99.90;;;;;;5042244;28;20074;-88
2023/11/22 07:14:49;;;;;;;13.52;9.10;;;4.60;99.90;;;;;;5041769;28;20479;-87
2023/11/22 07:17:17;;;;;;;12.70;9.50;;;4.60;99.90;;;;;;5042504;28;20062;-87
2023/11/22 07:19:46;;;;;;;13.75;9.00;;;4.60;99.90;;;;;;5058248;28;20141;-87
2023/11/22 07:22:15;;;;;;;11.95;9.13;;;4.60;99.90;;;;;;5059245;28;20387;-87
2023/11/22 07:24:44;;;;;;;16.27;9.80;;;4.60;99.90;;;;;;5076492;28;20488;-87
2023/11/22 07:27:13;;;;;;;12.82;9.60;;;4.70;99.90;;;;;;5076384;28;20024;-87
2023/11/22 07:29:43;;;;;;;12.02;9.43;;;4.70;99.90;;;;;;5076413;28;20056;-87
2023/11/22 07:32:09;;;;;;;13.65;10.43;;;4.70;99.90;;;;;;5059037;28;20035;-88
2023/11/22 07:34:36;;;;;;;14.15;10.45;;;4.80;99.90;;;;;;5059059;28;20035;-87
2023/11/22 07:37:02;;;;;;;12.63;10.15;;;4.80;99.90;;;;;;5059085;28;20419;-87
2023/11/22 07:39:28;;;;;;;13.55;10.45;;;4.80;99.90;;;;;;5059316;28;20027;-86
2023/11/22 07:41:55;;;;;;;13.95;10.43;;;4.80;99.90;;;;;;5070473;28;20032;-87
2023/11/22 07:44:24;;;;;;;14.23;10.43;;;4.90;99.90;;;;;;5065872;28;20035;-87
2023/11/22 07:46:51;;;;;;;14.55;10.32;;;4.90;99.90;;;;;;5100017;28;20031;-87
2023/11/22 07:49:17;;;;;;;13.55;9.82;;;5.00;99.90;;;;;;5083158;28;20005;-87
2023/11/22 07:51:45;;;;;;;12.85;10.02;;;5.00;99.90;;;;;;5044201;28;20051;-88
2023/11/22 07:54:15;;;;;;;12.35;9.48;;;5.10;99.90;;;;;;5042742;28;20426;-87
2023/11/22 07:56:43;;;;;;;13.32;9.63;;;5.10;99.90;;;;;;5042080;28;20021;-87
2023/11/22 07:59:10;;;;;;;12.55;9.25;;;5.10;99.90;;;;;;5058104;28;20021;-87
2023/11/22 08:01:36;;;;;;;11.98;9.80;;;5.20;99.90;;;;;;5058052;28;20036;-86
2023/11/22 08:04:02;;;;;;;12.60;9.85;;;5.30;99.90;;;;;;5058001;28;20388;-88
2023/11/22 08:06:28;;;;;;;14.05;10.82;;;5.30;99.90;;;;;;5057321;28;20506;-87
2023/11/22 08:08:53;;;;;;;14.88;11.35;;;5.40;99.90;;;;;;5041151;28;20029;-87
2023/11/22 08:11:19;;;;;;;14.70;10.70;;;5.30;99.90;;;;;;5041267;28;20480;-87
2023/11/22 08:13:47;;;;;;;15.55;10.55;;;5.40;99.90;;;;;;5075358;28;20028;-87
2023/11/22 08:16:13;;;;;;;15.40;11.02;;;5.50;99.90;;;;;;5041133;28;20043;-87
2023/11/22 08:18:42;;;;;;;15.77;11.25;;;5.50;99.90;;;;;;5041038;28;20468;-86
2023/11/22 08:21:08;;;;;;;16.60;11.98;;;5.50;99.90;;;;;;5041519;28;20024;-87
2023/11/22 08:23:34;;;;;;;16.23;11.43;;;5.60;99.90;;;;;;5075467;28;20032;-88
2023/11/22 08:25:59;;;;;;;14.90;12.00;;;5.60;99.90;;;;;;5040888;28;20086;-88
2023/11/22 08:28:26;;;;;;;15.93;12.02;;;5.70;99.90;;;;;;5057581;28;20024;-87
2023/11/22 08:30:51;;;;;;;14.05;11.38;;;5.70;99.90;;;;;;5057412;28;20021;-88
2023/11/22 08:33:17;;;;;;;15.10;12.18;;;5.70;99.90;;;;;;5041096;28;20029;-88
2023/11/22 08:35:43;;;;;;;15.75;11.00;;;5.80;99.90;;;;;;5057286;28;20123;-87
2023/11/22 08:38:09;;;;;;;15.57;12.55;;;5.80;99.90;;;;;;5057438;28;20036;-87
2023/11/22 08:40:37;;;;;;;16.88;12.80;;;5.80;99.90;;;;;;5075346;28;20067;-88
2023/11/22 08:43:04;;;;;;;15.90;12.07;;;5.90;99.90;;;;;;5040726;28;20024;-87
2023/11/22 08:45:31;;;;;;;17.58;12.68;;;5.90;99.90;;;;;;5024168;28;20029;-87
2023/11/22 08:47:57;;;;;;;18.48;14.02;;;6.00;99.90;;;;;;5057292;28;20029;-87
2023/11/22 08:50:23;;;;;;;17.23;13.40;;;6.00;99.90;;;;;;5075253;28;20036;-88
2023/11/22 08:52:52;;;;;;;16.55;12.10;;;6.00;99.90;;;;;;5057264;28;20029;-87
2023/11/22 08:55:24;;;;;;;16.38;12.75;;;6.10;99.90;;;;;;5056508;28;20079;-87
2023/11/22 08:57:51;;;;;;;17.27;13.50;;;6.10;99.90;;;;;;5056716;28;20486;-87
2023/11/22 09:00:22;;;;;;;16.42;12.88;;;6.20;99.90;;;;;;5057543;28;20387;-87
2023/11/22 09:02:49;;;;;;;15.43;12.85;;;6.20;99.90;;;;;;5059375;28;20021;-88
2023/11/22 09:05:16;;;;;;;16.52;13.43;;;6.20;99.90;;;;;;5050065;28;20029;-86
2023/11/22 09:07:44;;;;;;;17.77;12.82;;;6.30;99.90;;;;;;5080743;28;20074;-87
2023/11/22 09:10:12;;;;;;;16.77;12.05;;;6.30;99.90;;;;;;5063836;28;20019;-87
2023/11/22 09:12:40;;;;;;;16.42;13.15;;;6.30;99.90;;;;;;5065065;28;20005;-87
2023/11/22 09:15:15;;;;;;;15.60;12.88;;;6.30;99.90;;;;;;5045145;28;20091;-89
2023/11/22 09:17:46;;;;;;;17.08;12.95;;;6.30;99.90;;;;;;5041529;28;20029;-88
2023/11/22 09:20:19;;;;;;;15.27;12.07;;;6.40;99.90;;;;;;5057335;28;20475;-87
2023/11/22 09:22:54;;;;;;;17.50;12.68;;;6.40;99.90;;;;;;5074355;28;20055;-87
2023/11/22 09:25:30;;;;;;;19.63;12.90;;;6.40;99.90;;;;;;5056313;28;20032;-87
2023/11/22 09:27:58;;;;;;;16.70;12.85;;;6.40;99.90;;;;;;5056251;28;20388;-87
2023/11/22 09:30:42;;;;;;;17.83;14.18;;;6.50;99.90;;;;;;5074655;28;20028;-87
2023/11/22 09:33:14;;;;;;;15.30;12.38;;;6.50;99.90;;;;;;5041358;28;20068;-87
2023/11/22 09:35:40;;;;;;;17.52;13.20;;;6.60;99.90;;;;;;5056479;28;20029;-86
2023/11/22 09:38:15;;;;;;;16.10;12.93;;;6.60;99.90;;;;;;5039444;28;20378;-87
2023/11/22 09:40:43;;;;;;;19.35;14.05;;;6.60;99.90;;;;;;5056062;28;20482;-87
2023/11/22 09:43:09;;;;;;;16.23;12.30;;;6.70;99.90;;;;;;5039138;28;20039;-87
2023/11/22 09:45:37;;;;;;;15.93;12.68;;;6.70;99.90;;;;;;5055610;28;20028;-86
2023/11/22 09:48:16;;;;;;;15.35;12.65;;;6.70;99.90;;;;;;5055758;28;20033;-86
2023/11/22 09:50:51;;;;;;;18.92;13.27;;;6.80;99.90;;;;;;5055945;28;20025;-87
2023/11/22 09:53:30;;;;;;;17.17;13.10;;;6.80;99.90;;;;;;5055782;28;20028;-87
2023/11/22 09:55:57;;;;;;;17.50;13.27;;;6.90;99.90;;;;;;5073782;28;20025;-87
2023/11/22 09:58:24;;;;;;;17.20;13.18;;;6.90;99.90;;;;;;5023007;28;20460;-86
2023/11/22 10:00:50;;;;;;;16.38;12.30;;;7.00;99.90;;;;;;5039198;28;20033;-86
2023/11/22 10:03:18;;;;;;;16.35;12.57;;;7.00;99.90;;;;;;5073595;28;20036;-87
2023/11/22 10:05:44;;;;;;;16.65;12.05;;;7.00;99.90;;;;;;5039536;28;20058;-87
2023/11/22 10:08:10;;;;;;;16.17;11.98;;;7.10;99.90;;;;;;5077947;28;20041;-86
2023/11/22 10:10:37;;;;;;;16.95;12.18;;;7.10;99.90;;;;;;5029183;28;20025;-88
2023/11/22 10:13:03;;;;;;;14.70;11.90;;;7.20;99.90;;;;;;5062286;28;20068;-87
2023/11/22 10:15:29;;;;;;;13.55;11.70;;;7.20;99.90;;;;;;5062363;28;20450;-87
2023/11/22 10:17:56;;;;;;;17.60;12.25;;;7.20;99.90;;;;;;5062390;28;20059;-86
2023/11/22 10:20:39;;;;;;;16.50;12.52;;;7.20;99.90;;;;;;5080449;28;20116;-87
2023/11/22 10:23:14;;;;;;;15.98;11.35;;;7.30;99.90;;;;;;5080536;28;20025;-86
2023/11/22 10:25:49;;;;;;;15.57;11.68;;;7.30;99.90;;;;;;5080468;28;20036;-86
2023/11/22 10:28:17;;;;;;;15.60;11.30;;;7.30;99.90;;;;;;5063625;28;20051;-86
2023/11/22 10:30:43;;;;;;;13.02;10.93;;;7.40;99.90;;;;;;5069735;28;20059;-87
2023/11/22 10:33:13;;;;;;;14.85;11.30;;;7.40;99.90;;;;;;5104366;28;20020;-86
2023/11/22 10:35:42;;;;;;;14.13;10.43;;;7.40;99.90;;;;;;5071293;28;20032;-88
2023/11/22 10:38:08;;;;;;;15.43;11.38;;;7.40;99.90;;;;;;5104644;28;20017;-87
2023/11/22 10:40:35;;;;;;;13.82;10.55;;;7.50;99.90;;;;;;5057656;28;20119;-89
2023/11/22 10:43:02;;;;;;;13.55;11.07;;;7.50;99.90;;;;;;5081014;28;20028;-87
2023/11/22 10:45:33;;;;;;;17.60;11.73;;;7.50;99.90;;;;;;5029164;28;20025;-87
2023/11/22 10:48:00;;;;;;;13.52;10.38;;;7.50;99.90;;;;;;5080209;28;20376;-86
2023/11/22 10:50:28;;;;;;;16.85;11.98;;;7.60;99.90;;;;;;5080129;28;20032;-87
2023/11/22 10:53:00;;;;;;;14.00;11.20;;;7.60;99.90;;;;;;5062391;28;20025;-86
2023/11/22 10:55:27;;;;;;;14.13;11.25;;;7.60;99.90;;;;;;5080180;28;20032;-87
2023/11/22 10:57:56;;;;;;;14.95;11.10;;;7.70;99.90;;;;;;5062067;28;20037;-86
2023/11/22 11:00:26;;;;;;;13.48;11.57;;;7.70;99.90;;;;;;5079794;28;20093;-87
2023/11/22 11:02:59;;;;;;;14.25;10.57;;;7.70;99.90;;;;;;5045700;28;20442;-86
2023/11/22 11:05:29;;;;;;;15.73;11.68;;;7.70;99.90;;;;;;5079770;28;20029;-87
2023/11/22 11:08:02;;;;;;;14.15;10.98;;;7.80;99.90;;;;;;5061921;28;20373;-87
2023/11/22 11:10:30;;;;;;;15.10;11.18;;;7.80;99.90;;;;;;5080211;28;20020;-86
2023/11/22 11:12:57;;;;;;;14.18;10.77;;;7.80;99.90;;;;;;5062199;28;20082;-87
2023/11/22 11:15:23;;;;;;;14.43;11.77;;;7.80;99.90;;;;;;5061635;28;20033;-87
2023/11/22 11:17:50;;;;;;;13.27;11.23;;;7.80;99.90;;;;;;5079548;28;20029;-86
2023/11/22 11:20:19;;;;;;;14.32;11.88;;;7.80;99.90;;;;;;5041170;28;20483;-86
2023/11/22 11:22:48;;;;;;;13.77;11.25;;;7.80;99.90;;;;;;5076753;28;20046;-87
2023/11/22 11:25:18;;;;;;;14.57;11.85;;;7.90;99.90;;;;;;5058350;28;20145;-87
2023/11/22 11:27:45;;;;;;;16.80;12.30;;;7.80;99.90;;;;;;5058830;28;20025;-86
2023/11/22 11:30:30;;;;;;;15.25;12.90;;;7.80;99.90;;;;;;5058152;28;20274;-86
2023/11/22 11:32:56;;;;;;;15.80;13.00;;;7.90;99.90;;;;;;5076703;28;20020;-88
2023/11/22 11:35:38;;;;;;;18.77;14.20;;;7.90;99.90;;;;;;5042303;28;20040;-88
2023/11/22 11:38:04;;;;;;;18.25;14.45;;;7.90;99.90;;;;;;5058010;28;20140;-88
2023/11/22 11:40:34;;;;;;;20.63;13.98;;;7.90;99.90;;;;;;5058452;28;20487;-86
2023/11/22 11:43:00;;;;;;;19.08;14.20;;;7.90;99.90;;;;;;5075911;28;20467;-86
2023/11/22 11:45:27;;;;;;;17.77;13.98;;;7.90;99.90;;;;;;5075736;28;20040;-88
2023/11/22 11:47:53;;;;;;;17.42;14.38;;;7.90;99.90;;;;;;5076262;28;20031;-87
2023/11/22 11:50:22;;;;;;;17.58;13.93;;;7.90;99.90;;;;;;5075590;28;20025;-87
2023/11/22 11:52:47;;;;;;;17.92;13.75;;;7.90;99.90;;;;;;5058017;28;20059;-85
2023/11/22 11:55:15;;;;;;;16.98;13.48;;;7.90;99.90;;;;;;5041946;28;20032;-86
2023/11/22 11:57:41;;;;;;;15.35;12.15;;;7.90;99.90;;;;;;5063171;28;20032;-85
2023/11/22 12:00:09;;;;;;;16.00;12.13;;;8.00;99.90;;;;;;5066005;28;20080;-85
2023/11/22 12:02:35;;;;;;;15.70;12.10;;;8.00;99.90;;;;;;5065906;28;20017;-87
2023/11/22 12:05:08;;;;;;;19.38;13.20;;;8.00;99.90;;;;;;5048455;28;20019;-88
2023/11/22 12:07:37;;;;;;;16.50;12.50;;;8.00;99.90;;;;;;5068273;28;20059;-87
2023/11/22 12:10:06;;;;;;;17.80;13.10;;;8.00;99.90;;;;;;5076536;28;20024;-88
2023/11/22 12:12:32;;;;;;;20.98;15.00;;;8.00;99.90;;;;;;5058735;28;20028;-89
2023/11/22 12:14:58;;;;;;;20.95;14.73;;;8.00;99.90;;;;;;5058041;28;20035;-88
2023/11/22 12:17:26;;;;;;;17.85;13.48;;;8.00;99.90;;;;;;5041269;28;20192;-88
2023/11/22 12:19:53;;;;;;;18.30;15.13;;;8.00;99.90;;;;;;5057703;28;20024;-88
2023/11/22 12:22:20;;;;;;;22.25;17.60;;;8.00;99.90;;;;;;5057909;28;20028;-88
2023/11/22 12:24:46;;;;;;;21.77;16.00;;;8.00;99.90;;;;;;5075639;28;20032;-88
2023/11/22 12:27:12;;;;;;;20.77;15.63;;;8.00;99.90;;;;;;5040990;28;20543;-89
2023/11/22 12:29:39;;;;;;;21.38;15.32;;;8.00;99.90;;;;;;5075473;28;20449;-87
2023/11/22 12:32:05;;;;;;;22.58;16.40;;;8.00;99.90;;;;;;5056881;28;20032;-87
2023/11/22 12:34:33;;;;;;;19.05;14.57;;;8.00;99.90;;;;;;5024584;28;20029;-87
2023/11/22 12:37:00;;;;;;;22.15;15.50;;;8.10;99.90;;;;;;5040811;28;20033;-88
2023/11/22 12:39:26;;;;;;;20.52;14.60;;;8.10;99.90;;;;;;5040625;28;20534;-87
2023/11/22 12:41:53;;;;;;;22.25;16.05;;;8.00;99.90;;;;;;5040499;28;20033;-87